createdAt,value
2019-04-23T00:02:06.635Z,55.10
2019-04-23T00:04:36.842Z,55.00
2019-04-23T00:07:15.868Z,54.70
2019-04-23T00:09:42.393Z,55.10
2019-04-23T00:12:23.813Z,54.90
2019-04-23T00:14:52.560Z,55.00
2019-04-23T00:17:14.997Z,54.80
2019-04-23T00:19:53.673Z,54.70
2019-04-23T00:22:24.723Z,54.80
2019-04-23T00:27:35.788Z,54.90
2019-04-23T00:29:56.181Z,54.80
2019-04-23T00:32:28.740Z,55.10
2019-04-23T00:34:55.816Z,54.90
2019-04-23T00:37:35.567Z,54.80
2019-04-23T00:39:53.227Z,54.80
2019-04-23T00:42:32.965Z,54.70
2019-04-23T00:45:12.811Z,54.90
2019-04-23T00:47:31.281Z,54.60
2019-04-23T00:50:06.441Z,54.70
2019-04-23T00:52:32.222Z,54.60
2019-04-23T00:55:07.642Z,54.60
2019-04-23T00:57:47.040Z,54.60
2019-04-23T01:00:10.153Z,54.60
2019-04-23T01:07:33.514Z,54.50
2019-04-23T01:10:08.404Z,54.70
2019-04-23T01:12:47.729Z,54.60
2019-04-23T01:15:10.290Z,54.70
2019-04-23T01:17:46.875Z,54.70
2019-04-23T01:20:15.017Z,54.60
2019-04-23T01:22:27.473Z,54.40
2019-04-23T01:25:09.783Z,54.50
2019-04-23T01:28:15.461Z,54.70
2019-04-23T01:30:53.011Z,54.60
2019-04-23T01:33:21.680Z,55.10
2019-04-23T01:35:55.799Z,54.60
2019-04-23T01:38:24.077Z,54.60
2019-04-23T01:40:46.104Z,54.30
2019-04-23T01:43:39.938Z,54.50
2019-04-23T01:45:48.084Z,54.40
2019-04-23T01:48:18.558Z,54.20
2019-04-23T01:50:54.547Z,54.30
2019-04-23T01:53:28.769Z,54.30
2019-04-23T02:03:32.570Z,54.30
2019-04-23T02:06:00.308Z,54.10
2019-04-23T02:08:28.066Z,54.20
2019-04-23T02:15:57.153Z,54.00
2019-04-23T02:18:47.796Z,54.10
2019-04-23T02:21:20.065Z,53.90
2019-04-23T02:23:52.181Z,54.20
2019-04-23T02:26:20.138Z,53.70
2019-04-23T02:29:14.550Z,54.00
2019-04-23T02:31:45.274Z,53.90
2019-04-23T02:34:01.330Z,54.00
2019-04-23T02:36:24.575Z,53.90
2019-04-23T02:44:19.986Z,53.80
2019-04-23T02:46:36.151Z,53.80
2019-04-23T02:49:15.207Z,53.90
2019-04-23T02:51:54.590Z,53.90
2019-04-23T02:54:16.019Z,53.90
2019-04-23T02:56:48.716Z,53.90
2019-04-23T02:59:10.306Z,53.60
2019-04-23T03:01:29.840Z,53.90
2019-04-23T03:06:52.306Z,53.70
2019-04-23T03:11:48.451Z,53.70
2019-04-23T03:14:27.597Z,53.60
2019-04-23T03:16:54.700Z,53.70
2019-04-23T03:19:14.863Z,53.50
2019-04-23T03:24:43.494Z,53.60
2019-04-23T03:27:27.813Z,53.30
2019-04-23T03:37:23.130Z,53.60
2019-04-23T03:39:56.867Z,53.40
2019-04-23T03:42:24.428Z,53.40
2019-04-23T03:47:24.822Z,53.40
2019-04-23T03:49:56.024Z,53.30
2019-04-23T03:57:24.514Z,53.20
2019-04-23T04:00:31.073Z,53.30
2019-04-23T04:04:51.698Z,53.20
2019-04-23T04:07:49.355Z,53.30
2019-04-23T04:09:52.107Z,53.30
2019-04-23T04:12:35.645Z,53.10
2019-04-23T04:17:33.145Z,52.90
2019-04-23T04:20:05.230Z,52.90
2019-04-23T04:30:18.665Z,52.60
2019-04-23T04:32:36.470Z,52.50
2019-04-23T04:41:05.538Z,52.30
2019-04-23T04:42:42.214Z,52.30
2019-04-23T04:45:14.398Z,52.00
2019-04-23T04:47:41.349Z,52.70
2019-04-23T04:52:48.851Z,52.00
2019-04-23T04:55:12.046Z,52.00
2019-04-23T05:00:20.716Z,51.50
2019-04-23T05:03:01.146Z,51.50
2019-04-23T05:07:48.229Z,51.60
2019-04-23T05:10:29.574Z,51.60
2019-04-23T05:12:45.245Z,51.60
2019-04-23T05:17:59.643Z,51.70
2019-04-23T05:20:26.205Z,51.70
2019-04-23T05:25:25.824Z,53.60
2019-04-23T05:28:02.889Z,53.40
2019-04-23T05:30:33.035Z,52.90
2019-04-23T05:35:57.029Z,51.80
2019-04-23T05:38:07.697Z,51.80
2019-04-23T05:40:42.854Z,51.20
2019-04-23T05:42:58.410Z,50.30
2019-04-23T05:45:35.159Z,50.30
2019-04-23T05:48:16.221Z,50.80
2019-04-23T05:50:44.426Z,50.60
2019-04-23T05:53:24.138Z,50.30
2019-04-23T05:55:46.258Z,50.30
2019-04-23T05:58:14.593Z,50.20
2019-04-23T06:00:45.071Z,50.20
2019-04-23T06:03:16.054Z,50.60
2019-04-23T06:05:46.573Z,51.70
2019-04-23T06:08:20.200Z,52.00
2019-04-23T06:10:53.917Z,52.10
2019-04-23T06:13:22.509Z,52.40
2019-04-23T06:15:44.700Z,52.60
2019-04-23T06:18:28.143Z,52.50
2019-04-23T06:23:30.451Z,52.00
2019-04-23T06:26:20.207Z,52.00
2019-04-23T06:28:24.151Z,51.90
2019-04-23T06:30:56.068Z,51.90
2019-04-23T06:33:27.681Z,51.90
2019-04-23T06:36:02.875Z,51.80
2019-04-23T06:40:56.029Z,51.60
2019-04-23T06:43:56.433Z,51.60
2019-04-23T06:46:19.753Z,51.60
2019-04-23T06:48:47.059Z,51.80
2019-04-23T06:51:23.398Z,51.60
2019-04-23T06:53:43.783Z,51.50
2019-04-23T06:56:24.984Z,51.80
2019-04-23T06:58:51.193Z,51.60
2019-04-23T07:01:22.235Z,51.60
2019-04-23T07:03:57.190Z,51.60
2019-04-23T07:07:36.498Z,51.90
2019-04-23T07:09:12.130Z,51.60
2019-04-23T07:13:57.769Z,51.30
2019-04-23T07:16:31.360Z,51.50
2019-04-23T07:19:04.319Z,51.60
2019-04-23T07:21:42.444Z,51.90
2019-04-23T07:29:04.423Z,51.80
2019-04-23T07:31:35.115Z,51.90
2019-04-23T07:34:10.263Z,51.80
2019-04-23T07:36:38.914Z,51.90
2019-04-23T07:47:20.493Z,52.00
2019-04-23T07:49:49.314Z,52.50
2019-04-23T07:52:17.673Z,52.50
2019-04-23T07:54:54.099Z,52.60
2019-04-23T07:59:49.637Z,52.00
2019-04-23T08:02:24.112Z,52.70
2019-04-23T08:07:23.016Z,52.80
2019-04-23T08:09:53.605Z,53.00
2019-04-23T08:15:02.274Z,53.10
2019-04-23T08:17:22.516Z,52.90
2019-04-23T08:20:03.017Z,52.80
2019-04-23T08:22:28.613Z,53.10
2019-04-23T08:30:00.690Z,53.50
2019-04-23T08:32:29.262Z,53.30
2019-04-23T08:35:06.518Z,52.40
2019-04-23T08:40:09.636Z,53.30
2019-04-23T08:42:46.831Z,53.50
2019-04-23T08:48:17.310Z,53.50
2019-04-23T08:53:17.953Z,53.50
2019-04-23T08:58:06.027Z,53.70
2019-04-23T09:00:47.651Z,53.80
2019-04-23T09:03:18.737Z,53.70
2019-04-23T09:05:45.257Z,53.60
2019-04-23T09:08:19.129Z,53.60
2019-04-23T09:10:54.741Z,53.80
2019-04-23T09:13:45.042Z,53.70
2019-04-23T09:20:46.004Z,53.70
2019-04-23T09:23:24.487Z,53.60
2019-04-23T09:28:31.129Z,53.60
2019-04-23T09:30:57.810Z,53.40
2019-04-23T09:34:00.257Z,53.60
2019-04-23T09:36:22.387Z,53.70
2019-04-23T09:38:57.211Z,53.70
2019-04-23T09:41:39.557Z,53.60
2019-04-23T09:47:17.509Z,53.80
2019-04-23T09:52:39.267Z,53.60
2019-04-23T09:54:47.678Z,53.60
2019-04-23T09:57:10.451Z,53.60
2019-04-23T10:02:10.403Z,53.50
2019-04-23T10:04:36.817Z,53.50
2019-04-23T10:07:07.264Z,53.70
2019-04-23T10:09:27.364Z,53.90
2019-04-23T10:11:55.514Z,54.00
2019-04-23T10:14:26.173Z,54.00
2019-04-23T10:16:55.754Z,54.10
2019-04-23T10:19:26.638Z,54.60
2019-04-23T10:21:57.418Z,54.70
2019-04-23T10:24:27.666Z,55.20
2019-04-23T10:26:57.766Z,55.10
2019-04-23T10:29:29.989Z,55.20
2019-04-23T10:31:59.756Z,54.90
2019-04-23T10:34:30.496Z,55.20
2019-04-23T10:36:59.951Z,55.10
2019-04-23T10:39:35.525Z,55.00
2019-04-23T10:42:01.719Z,54.80
2019-04-23T10:44:37.362Z,54.80
2019-04-23T10:47:58.947Z,54.80
2019-04-23T10:50:37.439Z,54.60
2019-04-23T10:53:11.597Z,54.60
2019-04-23T10:55:42.224Z,54.80
2019-04-23T10:58:08.332Z,54.40
2019-04-23T11:00:46.099Z,54.30
2019-04-23T11:03:25.395Z,54.30
2019-04-23T11:05:51.656Z,54.50
2019-04-23T11:08:13.176Z,54.40
2019-04-23T11:10:46.852Z,54.60
2019-04-23T11:13:27.285Z,54.50
2019-04-23T11:16:07.020Z,54.50
2019-04-23T11:18:34.423Z,54.20
2019-04-23T11:21:07.398Z,54.20
2019-04-23T11:23:29.090Z,54.30
2019-04-23T11:25:59.101Z,54.20
2019-04-23T11:28:33.352Z,54.40
2019-04-23T11:30:55.792Z,54.10
2019-04-23T11:33:51.023Z,54.30
2019-04-23T11:38:50.926Z,54.30
2019-04-23T11:41:09.417Z,53.90
2019-04-23T11:43:32.754Z,53.90
2019-04-23T11:46:19.381Z,54.20
2019-04-23T11:51:41.138Z,54.30
2019-04-23T11:53:41.296Z,54.00
2019-04-23T11:56:22.696Z,54.20
2019-04-23T11:58:42.889Z,54.10
2019-04-23T12:04:09.541Z,54.00
2019-04-23T12:06:25.180Z,54.10
2019-04-23T12:08:57.106Z,54.10
2019-04-23T12:14:31.974Z,54.00
2019-04-23T12:27:08.388Z,53.90
2019-04-23T12:37:44.814Z,54.20
2019-04-23T12:45:14.341Z,54.10
2019-04-23T12:47:59.922Z,54.10
2019-04-23T12:50:37.990Z,54.30
2019-04-23T12:52:41.444Z,54.00
2019-04-23T12:57:42.283Z,54.30
2019-04-23T13:00:16.556Z,54.00
2019-04-23T13:02:55.491Z,53.40
2019-04-23T13:05:15.771Z,52.70
2019-04-23T13:07:53.919Z,51.70
2019-04-23T13:10:24.535Z,51.70
2019-04-23T13:13:04.238Z,51.20
2019-04-23T13:15:26.328Z,51.00
2019-04-23T13:20:23.578Z,49.20
2019-04-23T13:23:18.412Z,49.20
2019-04-23T13:25:28.308Z,48.60
2019-04-23T13:30:51.332Z,47.80
2019-04-23T13:35:55.305Z,47.50
2019-04-23T13:38:10.290Z,47.20
2019-04-23T13:43:14.380Z,47.10
2019-04-23T13:48:10.749Z,46.50
2019-04-23T13:53:18.108Z,46.50
2019-04-23T13:55:42.594Z,46.20
2019-04-23T13:58:15.215Z,46.00
2019-04-23T14:00:53.856Z,45.80
2019-04-23T14:03:19.761Z,45.80
2019-04-23T14:06:00.960Z,45.70
2019-04-23T14:11:06.919Z,45.80
2019-04-23T14:13:44.116Z,45.90
2019-04-23T14:16:28.669Z,45.70
2019-04-23T14:18:51.483Z,45.60
2019-04-23T14:21:15.884Z,45.60
2019-04-23T14:23:59.150Z,45.30
2019-04-23T14:28:43.513Z,45.20
2019-04-23T14:31:11.103Z,45.20
2019-04-23T14:36:16.011Z,44.90
2019-04-23T14:38:43.763Z,44.60
2019-04-23T14:43:56.502Z,44.10
2019-04-23T14:53:48.554Z,43.30
2019-04-23T14:56:39.074Z,43.30
2019-04-23T15:07:00.880Z,43.30
2019-04-23T15:09:04.275Z,43.20
2019-04-23T15:16:30.802Z,42.60
2019-04-23T15:21:55.492Z,41.90
2019-04-23T15:28:57.306Z,41.50
2019-04-23T15:34:23.972Z,41.30
2019-04-23T15:37:00.886Z,41.30
2019-04-23T15:44:16.179Z,41.10
2019-04-23T15:49:19.934Z,40.90
2019-04-23T15:54:30.234Z,41.00
2019-04-23T15:56:55.020Z,40.80
2019-04-23T15:59:34.957Z,41.00
2019-04-23T16:01:41.197Z,41.60
2019-04-23T16:03:59.076Z,41.00
2019-04-23T16:06:32.309Z,40.90
2019-04-23T16:09:16.291Z,40.80
2019-04-23T16:11:51.775Z,40.70
2019-04-23T16:14:32.040Z,41.00
2019-04-23T16:17:02.119Z,40.90
2019-04-23T16:19:53.216Z,41.00
2019-04-23T16:24:59.346Z,41.40
2019-04-23T16:27:14.927Z,34.20
2019-04-23T16:32:33.209Z,34.00
2019-04-23T16:35:15.636Z,32.30
2019-04-23T16:37:38.903Z,34.50
2019-04-23T16:40:10.401Z,32.70
2019-04-23T16:42:29.686Z,35.70
2019-04-23T16:45:13.082Z,33.60
2019-04-23T16:52:32.653Z,36.70
2019-04-23T16:55:07.041Z,36.10
2019-04-23T16:57:45.611Z,31.70
2019-04-23T17:00:25.970Z,33.30
2019-04-23T17:02:48.515Z,33.60
2019-04-23T17:05:20.045Z,31.40
2019-04-23T17:07:53.389Z,34.10
2019-04-23T17:10:19.111Z,36.90
2019-04-23T17:12:45.863Z,35.90
2019-04-23T17:15:17.886Z,35.00
2019-04-23T17:17:46.938Z,34.70
2019-04-23T17:20:16.359Z,35.30
2019-04-23T17:22:53.161Z,37.60
2019-04-23T17:25:17.656Z,36.30
2019-04-23T17:27:58.976Z,37.00
2019-04-23T17:30:22.151Z,35.90
2019-04-23T17:33:04.323Z,36.80
2019-04-23T17:35:30.364Z,36.80
2019-04-23T17:38:13.038Z,33.20
2019-04-23T17:40:39.387Z,36.20
2019-04-23T17:43:06.030Z,33.50
2019-04-23T17:45:40.863Z,33.40
2019-04-23T17:50:53.247Z,31.30
2019-04-23T17:56:03.735Z,32.50
2019-04-23T17:58:28.910Z,33.80
2019-04-23T18:01:04.076Z,33.40
2019-04-23T18:03:25.936Z,33.20
2019-04-23T18:06:14.535Z,33.00
2019-04-23T18:08:27.710Z,34.10
2019-04-23T18:16:18.246Z,34.70
2019-04-23T18:18:38.146Z,34.70
2019-04-23T18:24:16.693Z,35.10
2019-04-23T18:27:00.646Z,35.70
2019-04-23T18:29:45.642Z,36.40
2019-04-23T18:32:22.843Z,37.30
2019-04-23T18:35:09.868Z,37.10
2019-04-23T18:37:24.317Z,36.10
2019-04-23T18:39:48.223Z,38.40
2019-04-23T18:42:37.790Z,38.00
2019-04-23T18:44:56.208Z,36.80
2019-04-23T18:49:55.799Z,37.20
2019-04-23T18:52:36.575Z,36.40
2019-04-23T18:54:55.700Z,36.30
2019-04-23T18:57:25.526Z,36.60
2019-04-23T18:59:57.353Z,35.70
2019-04-23T19:02:52.331Z,35.90
2019-04-23T19:05:18.583Z,36.20
2019-04-23T19:10:36.147Z,35.70
2019-04-23T19:13:23.357Z,36.50
2019-04-23T19:18:12.421Z,37.20
2019-04-23T19:25:45.409Z,36.70
2019-04-23T19:28:38.240Z,37.60
2019-04-23T19:31:04.979Z,38.30
2019-04-23T19:38:33.343Z,36.80
2019-04-23T19:43:50.607Z,37.50
2019-04-23T19:46:21.936Z,38.20
2019-04-23T19:48:44.512Z,36.40
2019-04-23T19:53:55.231Z,34.60
2019-04-23T19:58:51.714Z,33.40
2019-04-23T20:01:15.031Z,33.80
2019-04-23T20:03:50.038Z,33.60
2019-04-23T20:06:15.023Z,33.40
2019-04-23T20:08:53.283Z,33.60
2019-04-23T20:11:21.886Z,34.30
2019-04-23T20:16:19.725Z,33.70
2019-04-23T20:21:13.229Z,33.70
2019-04-23T20:24:04.855Z,33.40
2019-04-23T20:29:11.970Z,34.70
2019-04-23T20:36:51.356Z,33.90
2019-04-23T20:54:42.153Z,33.60
2019-04-23T20:57:31.563Z,34.70
2019-04-23T20:59:56.758Z,34.50
2019-04-23T21:02:28.380Z,33.80
2019-04-23T21:05:03.248Z,34.80
2019-04-23T21:07:42.013Z,35.00
2019-04-23T21:10:08.800Z,35.50
2019-04-23T21:12:58.179Z,34.40
2019-04-23T21:17:35.617Z,34.30
2019-04-23T21:22:31.048Z,34.80
2019-04-23T21:25:01.830Z,35.00
2019-04-23T21:30:09.012Z,35.90
2019-04-23T21:32:53.468Z,36.70
2019-04-23T21:35:20.271Z,34.80
2019-04-23T21:37:54.115Z,35.60
2019-04-23T21:40:56.530Z,36.00
2019-04-23T21:46:08.065Z,35.60
2019-04-23T21:48:16.975Z,36.70
2019-04-23T21:53:14.844Z,36.10
2019-04-23T21:55:54.279Z,35.60
2019-04-23T21:58:27.163Z,36.00
2019-04-23T22:00:58.654Z,36.70
2019-04-23T22:03:21.982Z,35.90
2019-04-23T22:05:55.539Z,36.40
2019-04-23T22:08:27.130Z,35.70
2019-04-23T22:11:12.057Z,36.80
2019-04-23T22:13:42.005Z,35.90
2019-04-23T22:18:34.213Z,35.10
2019-04-23T22:21:04.853Z,35.60
2019-04-23T22:23:41.095Z,36.50
2019-04-23T22:26:10.508Z,35.80
2019-04-23T22:28:40.361Z,36.70
2019-04-23T22:31:12.504Z,36.10
2019-04-23T22:33:39.349Z,36.30
2019-04-23T22:36:13.005Z,36.50
2019-04-23T22:38:35.930Z,35.90
2019-04-23T22:43:43.278Z,36.00
2019-04-23T22:48:47.700Z,36.10
2019-04-23T22:51:30.974Z,37.00
2019-04-23T22:53:55.861Z,38.00
2019-04-23T22:56:35.458Z,36.40
2019-04-23T22:58:51.577Z,36.70
2019-04-23T23:03:55.682Z,36.70
2019-04-23T23:06:31.013Z,35.90
2019-04-23T23:09:10.434Z,36.80
2019-04-23T23:11:26.576Z,36.50
2019-04-23T23:14:09.136Z,38.20
2019-04-23T23:19:05.104Z,36.50
2019-04-23T23:21:29.165Z,36.60
2019-04-23T23:23:59.861Z,36.40
2019-04-23T23:26:35.406Z,37.60
2019-04-23T23:29:02.414Z,37.70
2019-04-23T23:31:29.445Z,37.30
2019-04-23T23:34:09.836Z,37.30
2019-04-23T23:36:38.850Z,36.30
2019-04-23T23:39:24.694Z,36.50
2019-04-23T23:41:40.458Z,36.90
2019-04-23T23:44:38.513Z,36.70
2019-04-23T23:46:50.688Z,36.80
2019-04-23T23:49:14.203Z,36.90
2019-04-23T23:56:53.882Z,37.00
2019-04-23T23:59:17.976Z,37.60
